sensor_id;sensor_type;location;lat;lon;timestamp;P1;durP1;ratioP1;P2;durP2;ratioP2
5077;SDS011;2557;51.390;7.494;2023-05-21T00:00:23;15.57;;;13.80;;
5077;SDS011;2557;51.390;7.494;2023-05-21T00:02:49;25.27;;;16.60;;
5077;SDS011;2557;51.390;7.494;2023-05-21T00:05:15;18.57;;;15.67;;
5077;SDS011;2557;51.390;7.494;2023-05-21T00:07:42;18.40;;;14.50;;
5077;SDS011;2557;51.390;7.494;2023-05-21T00:10:09;18.67;;;14.03;;
5077;SDS011;2557;51.390;7.494;2023-05-21T00:12:36;20.07;;;15.10;;
5077;SDS011;2557;51.390;7.494;2023-05-21T00:15:02;23.77;;;16.30;;
5077;SDS011;2557;51.390;7.494;2023-05-21T00:17:28;23.63;;;16.80;;
5077;SDS011;2557;51.390;7.494;2023-05-21T00:19:54;21.80;;;14.40;;
5077;SDS011;2557;51.390;7.494;2023-05-21T00:22:23;18.43;;;14.57;;
5077;SDS011;2557;51.390;7.494;2023-05-21T00:24:50;19.03;;;15.33;;
5077;SDS011;2557;51.390;7.494;2023-05-21T00:27:16;19.70;;;15.53;;
5077;SDS011;2557;51.390;7.494;2023-05-21T00:29:42;21.50;;;16.03;;
5077;SDS011;2557;51.390;7.494;2023-05-21T00:32:08;19.40;;;15.70;;
5077;SDS011;2557;51.390;7.494;2023-05-21T00:34:34;21.67;;;16.60;;
5077;SDS011;2557;51.390;7.494;2023-05-21T00:37:00;20.63;;;17.03;;
5077;SDS011;2557;51.390;7.494;2023-05-21T00:39:26;26.27;;;17.97;;
5077;SDS011;2557;51.390;7.494;2023-05-21T00:41:52;24.20;;;18.23;;
5077;SDS011;2557;51.390;7.494;2023-05-21T00:44:20;21.17;;;17.40;;
5077;SDS011;2557;51.390;7.494;2023-05-21T00:46:47;25.87;;;18.07;;
5077;SDS011;2557;51.390;7.494;2023-05-21T00:49:17;20.27;;;16.97;;
5077;SDS011;2557;51.390;7.494;2023-05-21T00:51:43;22.77;;;16.00;;
5077;SDS011;2557;51.390;7.494;2023-05-21T00:54:09;22.27;;;16.97;;
5077;SDS011;2557;51.390;7.494;2023-05-21T00:56:35;20.60;;;15.20;;
5077;SDS011;2557;51.390;7.494;2023-05-21T00:59:02;23.70;;;16.43;;
5077;SDS011;2557;51.390;7.494;2023-05-21T01:01:29;21.27;;;15.83;;
5077;SDS011;2557;51.390;7.494;2023-05-21T01:04:00;24.00;;;16.77;;
5077;SDS011;2557;51.390;7.494;2023-05-21T01:06:26;21.70;;;14.70;;
5077;SDS011;2557;51.390;7.494;2023-05-21T01:08:53;20.03;;;15.70;;
5077;SDS011;2557;51.390;7.494;2023-05-21T01:11:25;17.13;;;15.23;;
5077;SDS011;2557;51.390;7.494;2023-05-21T01:13:54;22.57;;;16.07;;
5077;SDS011;2557;51.390;7.494;2023-05-21T01:16:20;17.57;;;14.50;;
5077;SDS011;2557;51.390;7.494;2023-05-21T01:18:47;22.40;;;16.60;;
5077;SDS011;2557;51.390;7.494;2023-05-21T01:21:13;20.60;;;16.50;;
5077;SDS011;2557;51.390;7.494;2023-05-21T01:23:41;21.57;;;16.93;;
5077;SDS011;2557;51.390;7.494;2023-05-21T01:26:07;20.57;;;14.97;;
5077;SDS011;2557;51.390;7.494;2023-05-21T01:28:36;20.73;;;16.23;;
5077;SDS011;2557;51.390;7.494;2023-05-21T01:31:04;24.83;;;15.40;;
5077;SDS011;2557;51.390;7.494;2023-05-21T01:33:40;20.97;;;16.30;;
5077;SDS011;2557;51.390;7.494;2023-05-21T01:36:15;21.10;;;15.30;;
5077;SDS011;2557;51.390;7.494;2023-05-21T01:38:48;18.93;;;14.90;;
5077;SDS011;2557;51.390;7.494;2023-05-21T01:41:18;20.40;;;15.57;;
5077;SDS011;2557;51.390;7.494;2023-05-21T01:43:45;19.67;;;15.70;;
5077;SDS011;2557;51.390;7.494;2023-05-21T01:46:12;20.13;;;14.70;;
5077;SDS011;2557;51.390;7.494;2023-05-21T01:48:38;21.17;;;17.10;;
5077;SDS011;2557;51.390;7.494;2023-05-21T01:51:06;27.83;;;16.07;;
5077;SDS011;2557;51.390;7.494;2023-05-21T01:53:32;21.50;;;17.03;;
5077;SDS011;2557;51.390;7.494;2023-05-21T01:55:58;21.67;;;15.47;;
5077;SDS011;2557;51.390;7.494;2023-05-21T01:58:24;22.73;;;16.20;;
5077;SDS011;2557;51.390;7.494;2023-05-21T02:00:50;23.30;;;15.70;;
5077;SDS011;2557;51.390;7.494;2023-05-21T02:03:17;18.40;;;15.40;;
5077;SDS011;2557;51.390;7.494;2023-05-21T02:05:43;22.67;;;15.27;;
5077;SDS011;2557;51.390;7.494;2023-05-21T02:08:10;20.40;;;16.27;;
5077;SDS011;2557;51.390;7.494;2023-05-21T02:10:39;23.00;;;16.23;;
5077;SDS011;2557;51.390;7.494;2023-05-21T02:13:05;20.50;;;16.20;;
5077;SDS011;2557;51.390;7.494;2023-05-21T02:15:31;19.40;;;16.40;;
5077;SDS011;2557;51.390;7.494;2023-05-21T02:17:58;19.83;;;15.33;;
5077;SDS011;2557;51.390;7.494;2023-05-21T02:20:24;20.07;;;15.97;;
5077;SDS011;2557;51.390;7.494;2023-05-21T02:22:50;17.23;;;15.13;;
5077;SDS011;2557;51.390;7.494;2023-05-21T02:25:17;20.77;;;15.37;;
5077;SDS011;2557;51.390;7.494;2023-05-21T02:27:46;18.80;;;14.77;;
5077;SDS011;2557;51.390;7.494;2023-05-21T02:30:16;18.00;;;14.80;;
5077;SDS011;2557;51.390;7.494;2023-05-21T02:32:42;21.27;;;15.93;;
5077;SDS011;2557;51.390;7.494;2023-05-21T02:35:09;18.70;;;15.60;;
5077;SDS011;2557;51.390;7.494;2023-05-21T02:37:36;21.00;;;16.00;;
5077;SDS011;2557;51.390;7.494;2023-05-21T02:40:03;24.00;;;15.73;;
5077;SDS011;2557;51.390;7.494;2023-05-21T02:42:30;20.10;;;14.80;;
5077;SDS011;2557;51.390;7.494;2023-05-21T02:44:56;17.63;;;15.03;;
5077;SDS011;2557;51.390;7.494;2023-05-21T02:47:22;19.60;;;15.23;;
5077;SDS011;2557;51.390;7.494;2023-05-21T02:49:49;23.80;;;16.13;;
5077;SDS011;2557;51.390;7.494;2023-05-21T02:52:16;17.63;;;14.43;;
5077;SDS011;2557;51.390;7.494;2023-05-21T02:54:42;20.00;;;15.10;;
5077;SDS011;2557;51.390;7.494;2023-05-21T02:57:08;22.13;;;14.77;;
5077;SDS011;2557;51.390;7.494;2023-05-21T02:59:34;17.90;;;13.00;;
5077;SDS011;2557;51.390;7.494;2023-05-21T03:02:00;20.37;;;14.63;;
5077;SDS011;2557;51.390;7.494;2023-05-21T03:04:26;21.30;;;15.40;;
5077;SDS011;2557;51.390;7.494;2023-05-21T03:06:53;19.53;;;15.07;;
5077;SDS011;2557;51.390;7.494;2023-05-21T03:09:22;15.97;;;14.00;;
5077;SDS011;2557;51.390;7.494;2023-05-21T03:11:48;22.33;;;15.37;;
5077;SDS011;2557;51.390;7.494;2023-05-21T03:14:14;21.07;;;16.63;;
5077;SDS011;2557;51.390;7.494;2023-05-21T03:16:41;17.70;;;14.43;;
5077;SDS011;2557;51.390;7.494;2023-05-21T03:19:08;21.00;;;13.70;;
5077;SDS011;2557;51.390;7.494;2023-05-21T03:21:34;20.70;;;14.63;;
5077;SDS011;2557;51.390;7.494;2023-05-21T03:24:01;17.90;;;13.30;;
5077;SDS011;2557;51.390;7.494;2023-05-21T03:26:27;16.67;;;13.70;;
5077;SDS011;2557;51.390;7.494;2023-05-21T03:28:53;19.20;;;13.97;;
5077;SDS011;2557;51.390;7.494;2023-05-21T03:31:19;21.97;;;15.53;;
5077;SDS011;2557;51.390;7.494;2023-05-21T03:33:45;16.57;;;13.60;;
5077;SDS011;2557;51.390;7.494;2023-05-21T03:36:11;20.80;;;15.27;;
5077;SDS011;2557;51.390;7.494;2023-05-21T03:38:37;16.73;;;14.03;;
5077;SDS011;2557;51.390;7.494;2023-05-21T03:41:04;19.53;;;15.60;;
5077;SDS011;2557;51.390;7.494;2023-05-21T03:43:30;19.73;;;14.43;;
5077;SDS011;2557;51.390;7.494;2023-05-21T03:45:56;19.93;;;13.80;;
5077;SDS011;2557;51.390;7.494;2023-05-21T03:48:22;22.93;;;17.00;;
5077;SDS011;2557;51.390;7.494;2023-05-21T03:50:48;16.83;;;14.63;;
5077;SDS011;2557;51.390;7.494;2023-05-21T03:53:15;20.13;;;15.07;;
5077;SDS011;2557;51.390;7.494;2023-05-21T03:55:41;18.60;;;14.53;;
5077;SDS011;2557;51.390;7.494;2023-05-21T03:58:08;17.60;;;14.90;;
5077;SDS011;2557;51.390;7.494;2023-05-21T04:00:34;17.40;;;12.90;;
5077;SDS011;2557;51.390;7.494;2023-05-21T04:03:01;18.53;;;13.90;;
5077;SDS011;2557;51.390;7.494;2023-05-21T04:05:27;17.90;;;14.53;;
5077;SDS011;2557;51.390;7.494;2023-05-21T04:07:53;16.37;;;13.13;;
5077;SDS011;2557;51.390;7.494;2023-05-21T04:10:19;16.80;;;13.30;;
5077;SDS011;2557;51.390;7.494;2023-05-21T04:12:46;18.80;;;14.73;;
5077;SDS011;2557;51.390;7.494;2023-05-21T04:15:16;17.50;;;13.80;;
5077;SDS011;2557;51.390;7.494;2023-05-21T04:17:42;19.33;;;15.30;;
5077;SDS011;2557;51.390;7.494;2023-05-21T04:20:09;19.00;;;14.60;;
5077;SDS011;2557;51.390;7.494;2023-05-21T04:22:35;16.77;;;14.37;;
5077;SDS011;2557;51.390;7.494;2023-05-21T04:25:01;33.37;;;15.10;;
5077;SDS011;2557;51.390;7.494;2023-05-21T04:27:27;17.43;;;15.03;;
5077;SDS011;2557;51.390;7.494;2023-05-21T04:29:53;21.53;;;14.60;;
5077;SDS011;2557;51.390;7.494;2023-05-21T04:32:19;16.80;;;14.13;;
5077;SDS011;2557;51.390;7.494;2023-05-21T04:34:46;15.57;;;13.57;;
5077;SDS011;2557;51.390;7.494;2023-05-21T04:37:12;20.80;;;14.67;;
5077;SDS011;2557;51.390;7.494;2023-05-21T04:39:38;18.43;;;14.73;;
5077;SDS011;2557;51.390;7.494;2023-05-21T04:42:04;18.43;;;15.07;;
5077;SDS011;2557;51.390;7.494;2023-05-21T04:44:31;16.93;;;14.50;;
5077;SDS011;2557;51.390;7.494;2023-05-21T04:46:57;23.63;;;14.43;;
5077;SDS011;2557;51.390;7.494;2023-05-21T04:49:24;20.30;;;15.83;;
5077;SDS011;2557;51.390;7.494;2023-05-21T04:51:50;19.87;;;16.33;;
5077;SDS011;2557;51.390;7.494;2023-05-21T04:54:16;19.40;;;15.73;;
5077;SDS011;2557;51.390;7.494;2023-05-21T04:56:42;19.20;;;15.40;;
5077;SDS011;2557;51.390;7.494;2023-05-21T04:59:08;19.43;;;15.87;;
5077;SDS011;2557;51.390;7.494;2023-05-21T05:01:34;20.70;;;15.57;;
5077;SDS011;2557;51.390;7.494;2023-05-21T05:04:02;23.63;;;16.00;;
5077;SDS011;2557;51.390;7.494;2023-05-21T05:06:28;19.40;;;14.57;;
5077;SDS011;2557;51.390;7.494;2023-05-21T05:08:55;15.63;;;13.67;;
5077;SDS011;2557;51.390;7.494;2023-05-21T05:11:21;18.30;;;14.87;;
5077;SDS011;2557;51.390;7.494;2023-05-21T05:13:47;18.77;;;14.30;;
5077;SDS011;2557;51.390;7.494;2023-05-21T05:16:13;23.90;;;15.57;;
5077;SDS011;2557;51.390;7.494;2023-05-21T05:18:41;16.20;;;14.50;;
5077;SDS011;2557;51.390;7.494;2023-05-21T05:21:07;18.63;;;13.83;;
5077;SDS011;2557;51.390;7.494;2023-05-21T05:23:33;14.73;;;13.10;;
5077;SDS011;2557;51.390;7.494;2023-05-21T05:26:00;15.80;;;13.30;;
5077;SDS011;2557;51.390;7.494;2023-05-21T05:28:26;16.30;;;13.30;;
5077;SDS011;2557;51.390;7.494;2023-05-21T05:30:52;17.27;;;13.70;;
5077;SDS011;2557;51.390;7.494;2023-05-21T05:33:18;18.50;;;15.20;;
5077;SDS011;2557;51.390;7.494;2023-05-21T05:35:44;16.30;;;13.87;;
5077;SDS011;2557;51.390;7.494;2023-05-21T05:38:10;19.50;;;14.30;;
5077;SDS011;2557;51.390;7.494;2023-05-21T05:40:37;17.53;;;14.03;;
5077;SDS011;2557;51.390;7.494;2023-05-21T05:43:03;17.57;;;14.60;;
5077;SDS011;2557;51.390;7.494;2023-05-21T05:45:29;21.90;;;13.40;;
5077;SDS011;2557;51.390;7.494;2023-05-21T05:47:55;15.67;;;13.50;;
5077;SDS011;2557;51.390;7.494;2023-05-21T05:50:21;15.03;;;12.67;;
5077;SDS011;2557;51.390;7.494;2023-05-21T05:52:47;16.63;;;13.03;;
5077;SDS011;2557;51.390;7.494;2023-05-21T05:55:13;15.03;;;13.43;;
5077;SDS011;2557;51.390;7.494;2023-05-21T05:57:39;15.63;;;13.80;;
5077;SDS011;2557;51.390;7.494;2023-05-21T06:00:05;17.60;;;12.67;;
5077;SDS011;2557;51.390;7.494;2023-05-21T06:02:34;14.47;;;12.90;;
5077;SDS011;2557;51.390;7.494;2023-05-21T06:05:01;25.27;;;14.23;;
5077;SDS011;2557;51.390;7.494;2023-05-21T06:07:27;16.93;;;13.53;;
5077;SDS011;2557;51.390;7.494;2023-05-21T06:09:53;15.47;;;13.70;;
5077;SDS011;2557;51.390;7.494;2023-05-21T06:12:18;16.20;;;13.10;;
5077;SDS011;2557;51.390;7.494;2023-05-21T06:14:45;16.37;;;14.30;;
5077;SDS011;2557;51.390;7.494;2023-05-21T06:17:12;16.27;;;12.63;;
5077;SDS011;2557;51.390;7.494;2023-05-21T06:19:38;25.27;;;14.40;;
5077;SDS011;2557;51.390;7.494;2023-05-21T06:22:05;17.90;;;13.40;;
5077;SDS011;2557;51.390;7.494;2023-05-21T06:24:31;16.07;;;13.50;;
5077;SDS011;2557;51.390;7.494;2023-05-21T06:26:56;17.63;;;14.20;;
5077;SDS011;2557;51.390;7.494;2023-05-21T06:29:22;15.30;;;13.70;;
5077;SDS011;2557;51.390;7.494;2023-05-21T06:31:48;16.93;;;12.70;;
5077;SDS011;2557;51.390;7.494;2023-05-21T06:34:15;14.70;;;13.20;;
5077;SDS011;2557;51.390;7.494;2023-05-21T06:36:41;18.20;;;15.30;;
5077;SDS011;2557;51.390;7.494;2023-05-21T06:39:07;16.00;;;14.00;;
5077;SDS011;2557;51.390;7.494;2023-05-21T06:41:33;17.17;;;13.70;;
5077;SDS011;2557;51.390;7.494;2023-05-21T06:43:59;15.00;;;13.10;;
5077;SDS011;2557;51.390;7.494;2023-05-21T06:46:25;19.73;;;14.93;;
5077;SDS011;2557;51.390;7.494;2023-05-21T06:48:51;15.00;;;13.50;;
5077;SDS011;2557;51.390;7.494;2023-05-21T06:51:17;19.13;;;15.07;;
5077;SDS011;2557;51.390;7.494;2023-05-21T06:53:43;16.00;;;14.40;;
5077;SDS011;2557;51.390;7.494;2023-05-21T06:56:09;15.60;;;14.00;;
5077;SDS011;2557;51.390;7.494;2023-05-21T06:58:35;14.77;;;13.30;;
5077;SDS011;2557;51.390;7.494;2023-05-21T07:01:01;15.37;;;13.67;;
5077;SDS011;2557;51.390;7.494;2023-05-21T07:03:27;16.00;;;13.50;;
5077;SDS011;2557;51.390;7.494;2023-05-21T07:05:53;14.70;;;13.20;;
5077;SDS011;2557;51.390;7.494;2023-05-21T07:08:19;15.93;;;14.30;;
5077;SDS011;2557;51.390;7.494;2023-05-21T07:10:45;18.10;;;13.30;;
5077;SDS011;2557;51.390;7.494;2023-05-21T07:13:12;17.43;;;14.90;;
5077;SDS011;2557;51.390;7.494;2023-05-21T07:15:38;17.20;;;14.40;;
5077;SDS011;2557;51.390;7.494;2023-05-21T07:18:04;15.87;;;14.20;;
5077;SDS011;2557;51.390;7.494;2023-05-21T07:20:30;17.37;;;15.50;;
5077;SDS011;2557;51.390;7.494;2023-05-21T07:22:56;16.23;;;14.50;;
5077;SDS011;2557;51.390;7.494;2023-05-21T07:25:22;15.83;;;13.63;;
5077;SDS011;2557;51.390;7.494;2023-05-21T07:27:48;19.50;;;15.20;;
5077;SDS011;2557;51.390;7.494;2023-05-21T07:30:14;16.47;;;14.73;;
5077;SDS011;2557;51.390;7.494;2023-05-21T07:32:40;18.90;;;15.50;;
5077;SDS011;2557;51.390;7.494;2023-05-21T07:35:07;18.20;;;16.30;;
5077;SDS011;2557;51.390;7.494;2023-05-21T07:37:33;16.83;;;14.80;;
5077;SDS011;2557;51.390;7.494;2023-05-21T07:39:59;16.47;;;14.80;;
5077;SDS011;2557;51.390;7.494;2023-05-21T07:42:25;18.00;;;15.20;;
5077;SDS011;2557;51.390;7.494;2023-05-21T07:44:51;16.90;;;15.27;;
5077;SDS011;2557;51.390;7.494;2023-05-21T07:47:17;18.60;;;15.73;;
5077;SDS011;2557;51.390;7.494;2023-05-21T07:49:43;19.40;;;15.70;;
5077;SDS011;2557;51.390;7.494;2023-05-21T07:52:09;16.93;;;15.33;;
5077;SDS011;2557;51.390;7.494;2023-05-21T07:54:35;18.47;;;15.50;;
5077;SDS011;2557;51.390;7.494;2023-05-21T07:57:01;21.97;;;15.97;;
5077;SDS011;2557;51.390;7.494;2023-05-21T07:59:27;17.77;;;15.90;;
5077;SDS011;2557;51.390;7.494;2023-05-21T08:01:53;17.17;;;15.43;;
5077;SDS011;2557;51.390;7.494;2023-05-21T08:04:19;17.50;;;15.80;;
5077;SDS011;2557;51.390;7.494;2023-05-21T08:06:45;17.13;;;15.30;;
5077;SDS011;2557;51.390;7.494;2023-05-21T08:09:12;17.90;;;16.00;;
5077;SDS011;2557;51.390;7.494;2023-05-21T08:11:38;15.67;;;14.13;;
5077;SDS011;2557;51.390;7.494;2023-05-21T08:14:04;19.07;;;17.07;;
5077;SDS011;2557;51.390;7.494;2023-05-21T08:16:31;21.40;;;16.23;;
5077;SDS011;2557;51.390;7.494;2023-05-21T08:18:57;22.57;;;14.70;;
5077;SDS011;2557;51.390;7.494;2023-05-21T08:21:23;17.93;;;15.93;;
5077;SDS011;2557;51.390;7.494;2023-05-21T08:23:51;18.13;;;15.70;;
5077;SDS011;2557;51.390;7.494;2023-05-21T08:26:17;21.30;;;16.97;;
5077;SDS011;2557;51.390;7.494;2023-05-21T08:28:43;19.70;;;16.00;;
5077;SDS011;2557;51.390;7.494;2023-05-21T08:31:09;16.70;;;15.00;;
5077;SDS011;2557;51.390;7.494;2023-05-21T08:33:36;19.20;;;16.70;;
5077;SDS011;2557;51.390;7.494;2023-05-21T08:36:05;19.33;;;17.33;;
5077;SDS011;2557;51.390;7.494;2023-05-21T08:38:33;19.47;;;15.80;;
5077;SDS011;2557;51.390;7.494;2023-05-21T08:41:00;17.93;;;16.03;;
5077;SDS011;2557;51.390;7.494;2023-05-21T08:43:26;17.77;;;15.87;;
5077;SDS011;2557;51.390;7.494;2023-05-21T08:45:53;18.10;;;16.30;;
5077;SDS011;2557;51.390;7.494;2023-05-21T08:48:21;16.97;;;15.20;;
5077;SDS011;2557;51.390;7.494;2023-05-21T08:50:48;20.73;;;16.17;;
5077;SDS011;2557;51.390;7.494;2023-05-21T08:53:15;18.50;;;16.43;;
5077;SDS011;2557;51.390;7.494;2023-05-21T08:55:41;22.10;;;18.47;;
5077;SDS011;2557;51.390;7.494;2023-05-21T08:58:08;20.53;;;17.93;;
5077;SDS011;2557;51.390;7.494;2023-05-21T09:00:35;19.50;;;17.43;;
5077;SDS011;2557;51.390;7.494;2023-05-21T09:03:01;18.53;;;15.83;;
5077;SDS011;2557;51.390;7.494;2023-05-21T09:05:31;18.87;;;16.87;;
5077;SDS011;2557;51.390;7.494;2023-05-21T09:08:04;20.43;;;16.20;;
5077;SDS011;2557;51.390;7.494;2023-05-21T09:10:33;19.80;;;17.43;;
5077;SDS011;2557;51.390;7.494;2023-05-21T09:13:00;19.83;;;17.53;;
5077;SDS011;2557;51.390;7.494;2023-05-21T09:15:27;19.50;;;16.33;;
5077;SDS011;2557;51.390;7.494;2023-05-21T09:17:53;19.60;;;17.07;;
5077;SDS011;2557;51.390;7.494;2023-05-21T09:20:23;18.70;;;16.70;;
5077;SDS011;2557;51.390;7.494;2023-05-21T09:22:50;19.43;;;17.20;;
5077;SDS011;2557;51.390;7.494;2023-05-21T09:25:21;19.83;;;17.73;;
5077;SDS011;2557;51.390;7.494;2023-05-21T09:27:47;19.43;;;17.17;;
5077;SDS011;2557;51.390;7.494;2023-05-21T09:30:14;19.07;;;17.00;;
5077;SDS011;2557;51.390;7.494;2023-05-21T09:32:44;18.87;;;16.90;;
5077;SDS011;2557;51.390;7.494;2023-05-21T09:35:11;19.70;;;17.40;;
5077;SDS011;2557;51.390;7.494;2023-05-21T09:37:38;19.90;;;16.70;;
5077;SDS011;2557;51.390;7.494;2023-05-21T09:40:20;22.13;;;17.30;;
5077;SDS011;2557;51.390;7.494;2023-05-21T09:42:49;22.33;;;16.10;;
5077;SDS011;2557;51.390;7.494;2023-05-21T09:45:16;17.33;;;15.27;;
5077;SDS011;2557;51.390;7.494;2023-05-21T09:47:43;19.90;;;16.70;;
5077;SDS011;2557;51.390;7.494;2023-05-21T09:50:09;20.07;;;16.60;;
5077;SDS011;2557;51.390;7.494;2023-05-21T09:52:36;18.80;;;16.33;;
5077;SDS011;2557;51.390;7.494;2023-05-21T09:55:08;17.87;;;16.07;;
5077;SDS011;2557;51.390;7.494;2023-05-21T09:57:39;23.90;;;18.37;;
5077;SDS011;2557;51.390;7.494;2023-05-21T10:00:06;20.53;;;16.63;;
5077;SDS011;2557;51.390;7.494;2023-05-21T10:02:33;19.93;;;16.83;;
5077;SDS011;2557;51.390;7.494;2023-05-21T10:05:02;20.87;;;17.83;;
5077;SDS011;2557;51.390;7.494;2023-05-21T10:07:30;19.43;;;17.53;;
5077;SDS011;2557;51.390;7.494;2023-05-21T10:09:56;22.73;;;16.30;;
5077;SDS011;2557;51.390;7.494;2023-05-21T10:12:24;18.87;;;16.93;;
5077;SDS011;2557;51.390;7.494;2023-05-21T10:14:57;20.73;;;18.47;;
5077;SDS011;2557;51.390;7.494;2023-05-21T10:17:25;20.93;;;18.13;;
5077;SDS011;2557;51.390;7.494;2023-05-21T10:19:53;18.90;;;17.00;;
5077;SDS011;2557;51.390;7.494;2023-05-21T10:22:21;19.87;;;17.87;;
5077;SDS011;2557;51.390;7.494;2023-05-21T10:24:47;20.13;;;18.10;;
5077;SDS011;2557;51.390;7.494;2023-05-21T10:27:13;19.63;;;17.50;;
5077;SDS011;2557;51.390;7.494;2023-05-21T10:29:39;22.23;;;19.10;;
5077;SDS011;2557;51.390;7.494;2023-05-21T10:32:06;22.13;;;17.50;;
5077;SDS011;2557;51.390;7.494;2023-05-21T10:34:32;23.75;;;18.83;;
5077;SDS011;2557;51.390;7.494;2023-05-21T10:37:00;20.53;;;18.37;;
5077;SDS011;2557;51.390;7.494;2023-05-21T10:39:26;19.87;;;17.70;;
5077;SDS011;2557;51.390;7.494;2023-05-21T10:41:55;25.70;;;17.40;;
5077;SDS011;2557;51.390;7.494;2023-05-21T10:44:51;21.67;;;18.17;;
5077;SDS011;2557;51.390;7.494;2023-05-21T10:49:43;23.70;;;18.17;;
5077;SDS011;2557;51.390;7.494;2023-05-21T11:00:09;23.30;;;18.20;;
5077;SDS011;2557;51.390;7.494;2023-05-21T11:02:37;21.50;;;18.20;;
5077;SDS011;2557;51.390;7.494;2023-05-21T11:05:03;22.40;;;19.40;;
5077;SDS011;2557;51.390;7.494;2023-05-21T11:07:48;18.80;;;16.80;;
5077;SDS011;2557;51.390;7.494;2023-05-21T11:13:04;19.87;;;17.47;;
5077;SDS011;2557;51.390;7.494;2023-05-21T11:15:30;22.17;;;19.50;;
5077;SDS011;2557;51.390;7.494;2023-05-21T11:18:16;21.20;;;18.10;;
5077;SDS011;2557;51.390;7.494;2023-05-21T11:20:43;19.70;;;17.70;;
5077;SDS011;2557;51.390;7.494;2023-05-21T11:23:15;20.37;;;18.27;;
5077;SDS011;2557;51.390;7.494;2023-05-21T11:25:41;21.07;;;18.77;;
5077;SDS011;2557;51.390;7.494;2023-05-21T11:28:07;24.13;;;19.47;;
5077;SDS011;2557;51.390;7.494;2023-05-21T11:30:33;22.40;;;18.90;;
5077;SDS011;2557;51.390;7.494;2023-05-21T11:38:10;23.40;;;18.30;;
5077;SDS011;2557;51.390;7.494;2023-05-21T11:40:36;21.80;;;19.10;;
5077;SDS011;2557;51.390;7.494;2023-05-21T11:43:02;20.87;;;18.67;;
5077;SDS011;2557;51.390;7.494;2023-05-21T11:45:29;20.37;;;18.20;;
5077;SDS011;2557;51.390;7.494;2023-05-21T11:47:56;20.43;;;18.03;;
5077;SDS011;2557;51.390;7.494;2023-05-21T11:50:22;22.83;;;18.23;;
5077;SDS011;2557;51.390;7.494;2023-05-21T11:52:48;20.43;;;18.20;;
5077;SDS011;2557;51.390;7.494;2023-05-21T11:55:15;21.30;;;19.03;;
5077;SDS011;2557;51.390;7.494;2023-05-21T11:57:45;21.17;;;18.50;;
5077;SDS011;2557;51.390;7.494;2023-05-21T12:00:15;20.63;;;16.90;;
5077;SDS011;2557;51.390;7.494;2023-05-21T12:02:44;20.80;;;17.30;;
5077;SDS011;2557;51.390;7.494;2023-05-21T12:05:10;20.50;;;18.37;;
5077;SDS011;2557;51.390;7.494;2023-05-21T12:07:37;21.67;;;17.80;;
5077;SDS011;2557;51.390;7.494;2023-05-21T12:10:03;23.83;;;18.57;;
5077;SDS011;2557;51.390;7.494;2023-05-21T12:12:30;22.03;;;18.10;;
5077;SDS011;2557;51.390;7.494;2023-05-21T12:14:57;21.20;;;18.97;;
5077;SDS011;2557;51.390;7.494;2023-05-21T12:17:24;25.53;;;18.40;;
5077;SDS011;2557;51.390;7.494;2023-05-21T12:19:55;21.17;;;18.67;;
5077;SDS011;2557;51.390;7.494;2023-05-21T12:22:22;19.43;;;17.43;;
5077;SDS011;2557;51.390;7.494;2023-05-21T12:24:48;21.00;;;17.37;;
5077;SDS011;2557;51.390;7.494;2023-05-21T12:27:14;22.30;;;18.10;;
5077;SDS011;2557;51.390;7.494;2023-05-21T12:29:43;20.60;;;18.50;;
5077;SDS011;2557;51.390;7.494;2023-05-21T12:32:10;20.30;;;18.30;;
5077;SDS011;2557;51.390;7.494;2023-05-21T12:37:03;23.67;;;17.77;;
5077;SDS011;2557;51.390;7.494;2023-05-21T12:39:30;22.13;;;17.50;;
5077;SDS011;2557;51.390;7.494;2023-05-21T12:41:57;20.23;;;18.13;;
5077;SDS011;2557;51.390;7.494;2023-05-21T12:44:23;19.37;;;16.47;;
5077;SDS011;2557;51.390;7.494;2023-05-21T12:46:49;20.10;;;18.00;;
5077;SDS011;2557;51.390;7.494;2023-05-21T12:49:32;18.17;;;16.27;;
5077;SDS011;2557;51.390;7.494;2023-05-21T12:51:58;21.13;;;18.43;;
5077;SDS011;2557;51.390;7.494;2023-05-21T12:54:29;19.87;;;17.77;;
5077;SDS011;2557;51.390;7.494;2023-05-21T12:56:55;20.13;;;17.57;;
5077;SDS011;2557;51.390;7.494;2023-05-21T12:59:21;23.13;;;18.43;;
5077;SDS011;2557;51.390;7.494;2023-05-21T13:01:47;21.60;;;19.17;;
5077;SDS011;2557;51.390;7.494;2023-05-21T13:04:13;21.53;;;16.63;;
5077;SDS011;2557;51.390;7.494;2023-05-21T13:06:42;19.90;;;17.80;;
5077;SDS011;2557;51.390;7.494;2023-05-21T13:09:08;20.07;;;16.67;;
5077;SDS011;2557;51.390;7.494;2023-05-21T13:11:34;18.43;;;16.53;;
5077;SDS011;2557;51.390;7.494;2023-05-21T13:14:00;19.90;;;17.77;;
5077;SDS011;2557;51.390;7.494;2023-05-21T13:16:26;19.50;;;17.40;;
5077;SDS011;2557;51.390;7.494;2023-05-21T13:18:53;17.33;;;15.00;;
5077;SDS011;2557;51.390;7.494;2023-05-21T13:21:19;20.53;;;17.60;;
5077;SDS011;2557;51.390;7.494;2023-05-21T13:23:44;17.90;;;16.20;;
5077;SDS011;2557;51.390;7.494;2023-05-21T13:26:10;18.33;;;16.50;;
5077;SDS011;2557;51.390;7.494;2023-05-21T13:28:36;18.77;;;16.73;;
5077;SDS011;2557;51.390;7.494;2023-05-21T13:31:04;19.27;;;16.27;;
5077;SDS011;2557;51.390;7.494;2023-05-21T13:33:30;17.97;;;16.33;;
5077;SDS011;2557;51.390;7.494;2023-05-21T13:35:56;19.43;;;17.33;;
5077;SDS011;2557;51.390;7.494;2023-05-21T13:38:22;18.13;;;16.23;;
5077;SDS011;2557;51.390;7.494;2023-05-21T13:40:48;24.37;;;16.73;;
5077;SDS011;2557;51.390;7.494;2023-05-21T13:43:14;18.73;;;16.43;;
5077;SDS011;2557;51.390;7.494;2023-05-21T13:45:40;17.30;;;15.63;;
5077;SDS011;2557;51.390;7.494;2023-05-21T13:48:07;17.63;;;15.83;;
5077;SDS011;2557;51.390;7.494;2023-05-21T13:50:33;18.43;;;16.53;;
5077;SDS011;2557;51.390;7.494;2023-05-21T13:52:59;17.33;;;15.63;;
5077;SDS011;2557;51.390;7.494;2023-05-21T13:55:25;17.57;;;15.77;;
5077;SDS011;2557;51.390;7.494;2023-05-21T13:57:51;23.30;;;16.30;;
5077;SDS011;2557;51.390;7.494;2023-05-21T14:00:18;17.57;;;15.67;;
5077;SDS011;2557;51.390;7.494;2023-05-21T14:02:44;17.60;;;16.00;;
5077;SDS011;2557;51.390;7.494;2023-05-21T14:05:10;18.73;;;16.70;;
5077;SDS011;2557;51.390;7.494;2023-05-21T14:07:36;20.33;;;15.60;;
5077;SDS011;2557;51.390;7.494;2023-05-21T14:10:03;16.40;;;14.70;;
5077;SDS011;2557;51.390;7.494;2023-05-21T14:12:30;18.10;;;15.50;;
5077;SDS011;2557;51.390;7.494;2023-05-21T14:14:57;16.83;;;15.17;;
5077;SDS011;2557;51.390;7.494;2023-05-21T14:17:23;17.63;;;15.73;;
5077;SDS011;2557;51.390;7.494;2023-05-21T14:19:49;16.43;;;14.93;;
5077;SDS011;2557;51.390;7.494;2023-05-21T14:22:15;17.00;;;15.30;;
5077;SDS011;2557;51.390;7.494;2023-05-21T14:24:41;19.83;;;16.03;;
5077;SDS011;2557;51.390;7.494;2023-05-21T14:27:07;17.63;;;15.93;;
5077;SDS011;2557;51.390;7.494;2023-05-21T14:29:33;15.43;;;13.67;;
5077;SDS011;2557;51.390;7.494;2023-05-21T14:31:59;18.30;;;16.40;;
5077;SDS011;2557;51.390;7.494;2023-05-21T14:34:25;16.83;;;15.13;;
5077;SDS011;2557;51.390;7.494;2023-05-21T14:36:51;16.70;;;15.20;;
5077;SDS011;2557;51.390;7.494;2023-05-21T14:39:17;17.20;;;14.03;;
5077;SDS011;2557;51.390;7.494;2023-05-21T14:41:43;17.43;;;15.57;;
5077;SDS011;2557;51.390;7.494;2023-05-21T14:44:09;17.47;;;15.00;;
5077;SDS011;2557;51.390;7.494;2023-05-21T14:46:35;17.67;;;16.07;;
5077;SDS011;2557;51.390;7.494;2023-05-21T14:49:01;18.10;;;16.30;;
5077;SDS011;2557;51.390;7.494;2023-05-21T14:51:27;17.67;;;15.80;;
5077;SDS011;2557;51.390;7.494;2023-05-21T14:53:53;18.37;;;15.83;;
5077;SDS011;2557;51.390;7.494;2023-05-21T14:56:21;19.40;;;17.07;;
5077;SDS011;2557;51.390;7.494;2023-05-21T14:58:50;19.17;;;17.27;;
5077;SDS011;2557;51.390;7.494;2023-05-21T15:01:16;19.33;;;16.40;;
5077;SDS011;2557;51.390;7.494;2023-05-21T15:03:42;19.73;;;17.63;;
5077;SDS011;2557;51.390;7.494;2023-05-21T15:06:08;17.43;;;15.73;;